sensor_id;sensor_type;location;lat;lon;timestamp;temperature;humidity
26053;DHT22;13826;51.186;4.450;2022-07-17T00:00:39;17.70;99.90
26053;DHT22;13826;51.186;4.450;2022-07-17T00:03:11;17.80;99.90
26053;DHT22;13826;51.186;4.450;2022-07-17T00:05:37;17.80;99.90
26053;DHT22;13826;51.186;4.450;2022-07-17T00:08:04;17.70;99.90
26053;DHT22;13826;51.186;4.450;2022-07-17T00:10:32;17.80;99.90
26053;DHT22;13826;51.186;4.450;2022-07-17T00:12:58;17.80;99.90
26053;DHT22;13826;51.186;4.450;2022-07-17T00:15:23;17.80;99.90
26053;DHT22;13826;51.186;4.450;2022-07-17T00:17:49;17.70;99.90
26053;DHT22;13826;51.186;4.450;2022-07-17T00:20:15;17.70;99.90
26053;DHT22;13826;51.186;4.450;2022-07-17T00:22:40;17.60;1.00
26053;DHT22;13826;51.186;4.450;2022-07-17T00:25:09;17.70;1.00
26053;DHT22;13826;51.186;4.450;2022-07-17T00:27:38;17.70;1.00
26053;DHT22;13826;51.186;4.450;2022-07-17T00:30:05;17.60;1.00
26053;DHT22;13826;51.186;4.450;2022-07-17T00:32:31;17.50;1.00
26053;DHT22;13826;51.186;4.450;2022-07-17T00:34:56;17.40;1.00
26053;DHT22;13826;51.186;4.450;2022-07-17T00:37:22;17.50;1.00
26053;DHT22;13826;51.186;4.450;2022-07-17T00:39:48;17.40;1.00
26053;DHT22;13826;51.186;4.450;2022-07-17T00:42:15;17.40;1.00
26053;DHT22;13826;51.186;4.450;2022-07-17T00:44:41;17.30;99.90
26053;DHT22;13826;51.186;4.450;2022-07-17T00:47:16;17.00;1.00
26053;DHT22;13826;51.186;4.450;2022-07-17T00:49:42;16.90;1.00
26053;DHT22;13826;51.186;4.450;2022-07-17T00:52:09;16.80;1.00
26053;DHT22;13826;51.186;4.450;2022-07-17T00:54:39;16.80;84.10
26053;DHT22;13826;51.186;4.450;2022-07-17T00:57:10;16.90;1.00
26053;DHT22;13826;51.186;4.450;2022-07-17T00:59:37;16.80;1.00
26053;DHT22;13826;51.186;4.450;2022-07-17T01:02:04;17.00;1.00
26053;DHT22;13826;51.186;4.450;2022-07-17T01:04:31;17.00;1.00
26053;DHT22;13826;51.186;4.450;2022-07-17T01:06:57;17.10;1.00
26053;DHT22;13826;51.186;4.450;2022-07-17T01:09:23;17.10;1.00
26053;DHT22;13826;51.186;4.450;2022-07-17T01:11:50;17.10;99.90
26053;DHT22;13826;51.186;4.450;2022-07-17T01:14:16;17.10;1.00
26053;DHT22;13826;51.186;4.450;2022-07-17T01:16:43;17.10;1.00
26053;DHT22;13826;51.186;4.450;2022-07-17T01:19:10;17.00;1.00
26053;DHT22;13826;51.186;4.450;2022-07-17T01:21:44;17.00;1.00
26053;DHT22;13826;51.186;4.450;2022-07-17T01:24:10;17.00;1.00
26053;DHT22;13826;51.186;4.450;2022-07-17T01:26:36;17.00;1.00
26053;DHT22;13826;51.186;4.450;2022-07-17T01:29:02;16.90;1.00
26053;DHT22;13826;51.186;4.450;2022-07-17T01:31:28;16.90;1.00
26053;DHT22;13826;51.186;4.450;2022-07-17T01:33:54;16.90;1.00
26053;DHT22;13826;51.186;4.450;2022-07-17T01:36:22;17.00;1.00
26053;DHT22;13826;51.186;4.450;2022-07-17T01:38:49;16.80;1.00
26053;DHT22;13826;51.186;4.450;2022-07-17T01:41:15;16.70;99.90
26053;DHT22;13826;51.186;4.450;2022-07-17T01:43:41;16.60;99.90
26053;DHT22;13826;51.186;4.450;2022-07-17T01:46:06;16.70;99.90
26053;DHT22;13826;51.186;4.450;2022-07-17T01:48:32;16.70;99.90
26053;DHT22;13826;51.186;4.450;2022-07-17T01:50:58;16.60;1.00
26053;DHT22;13826;51.186;4.450;2022-07-17T01:53:24;16.60;1.00
26053;DHT22;13826;51.186;4.450;2022-07-17T01:55:49;16.60;1.00
26053;DHT22;13826;51.186;4.450;2022-07-17T01:58:15;16.50;1.00
26053;DHT22;13826;51.186;4.450;2022-07-17T02:00:42;16.30;99.90
26053;DHT22;13826;51.186;4.450;2022-07-17T02:03:07;16.40;1.00
26053;DHT22;13826;51.186;4.450;2022-07-17T02:05:33;16.30;1.00
26053;DHT22;13826;51.186;4.450;2022-07-17T02:07:59;16.40;1.00
26053;DHT22;13826;51.186;4.450;2022-07-17T02:10:24;16.40;99.90
26053;DHT22;13826;51.186;4.450;2022-07-17T02:12:50;16.20;16.60
26053;DHT22;13826;51.186;4.450;2022-07-17T02:15:16;16.30;91.50
26053;DHT22;13826;51.186;4.450;2022-07-17T02:17:41;16.30;99.90
26053;DHT22;13826;51.186;4.450;2022-07-17T02:20:08;16.20;1.00
26053;DHT22;13826;51.186;4.450;2022-07-17T02:22:35;16.10;1.00
26053;DHT22;13826;51.186;4.450;2022-07-17T02:25:01;16.10;99.90
26053;DHT22;13826;51.186;4.450;2022-07-17T02:27:27;16.10;1.00
26053;DHT22;13826;51.186;4.450;2022-07-17T02:29:53;16.10;99.90
26053;DHT22;13826;51.186;4.450;2022-07-17T02:32:18;16.10;85.40
26053;DHT22;13826;51.186;4.450;2022-07-17T02:34:44;16.10;99.90
26053;DHT22;13826;51.186;4.450;2022-07-17T02:37:10;16.10;99.90
26053;DHT22;13826;51.186;4.450;2022-07-17T02:39:35;16.10;1.00
26053;DHT22;13826;51.186;4.450;2022-07-17T02:42:02;16.10;1.00
26053;DHT22;13826;51.186;4.450;2022-07-17T02:44:28;16.00;99.90
26053;DHT22;13826;51.186;4.450;2022-07-17T02:46:54;16.10;75.50
26053;DHT22;13826;51.186;4.450;2022-07-17T02:49:19;16.00;24.50
26053;DHT22;13826;51.186;4.450;2022-07-17T02:51:45;16.00;1.00
26053;DHT22;13826;51.186;4.450;2022-07-17T02:54:11;16.00;99.90
26053;DHT22;13826;51.186;4.450;2022-07-17T02:56:36;16.00;99.90
26053;DHT22;13826;51.186;4.450;2022-07-17T02:59:02;16.00;99.90
26053;DHT22;13826;51.186;4.450;2022-07-17T03:01:28;16.00;99.90
26053;DHT22;13826;51.186;4.450;2022-07-17T03:03:53;16.10;99.90
26053;DHT22;13826;51.186;4.450;2022-07-17T03:06:19;15.90;71.00
26053;DHT22;13826;51.186;4.450;2022-07-17T03:08:44;15.90;1.00
26053;DHT22;13826;51.186;4.450;2022-07-17T03:11:10;15.90;99.90
26053;DHT22;13826;51.186;4.450;2022-07-17T03:13:36;15.90;99.90
26053;DHT22;13826;51.186;4.450;2022-07-17T03:16:02;16.00;99.90
26053;DHT22;13826;51.186;4.450;2022-07-17T03:18:27;15.80;1.00
26053;DHT22;13826;51.186;4.450;2022-07-17T03:20:53;15.70;99.90
26053;DHT22;13826;51.186;4.450;2022-07-17T03:23:19;15.70;99.90
26053;DHT22;13826;51.186;4.450;2022-07-17T03:25:44;15.80;1.00
26053;DHT22;13826;51.186;4.450;2022-07-17T03:28:10;15.80;99.90
26053;DHT22;13826;51.186;4.450;2022-07-17T03:30:36;15.70;1.00
26053;DHT22;13826;51.186;4.450;2022-07-17T03:33:01;15.70;1.00
26053;DHT22;13826;51.186;4.450;2022-07-17T03:35:27;15.60;99.90
26053;DHT22;13826;51.186;4.450;2022-07-17T03:37:53;15.60;99.90
26053;DHT22;13826;51.186;4.450;2022-07-17T03:40:18;15.60;99.90
26053;DHT22;13826;51.186;4.450;2022-07-17T03:42:44;15.50;1.00
26053;DHT22;13826;51.186;4.450;2022-07-17T03:45:10;15.60;1.00
26053;DHT22;13826;51.186;4.450;2022-07-17T03:47:35;15.70;1.00
26053;DHT22;13826;51.186;4.450;2022-07-17T03:50:01;15.80;99.90
26053;DHT22;13826;51.186;4.450;2022-07-17T03:52:27;15.70;1.00
26053;DHT22;13826;51.186;4.450;2022-07-17T03:54:52;15.50;99.90
26053;DHT22;13826;51.186;4.450;2022-07-17T03:57:18;15.40;99.90
26053;DHT22;13826;51.186;4.450;2022-07-17T03:59:44;15.50;1.00
26053;DHT22;13826;51.186;4.450;2022-07-17T04:02:09;15.60;1.00
26053;DHT22;13826;51.186;4.450;2022-07-17T04:04:35;15.60;1.00
26053;DHT22;13826;51.186;4.450;2022-07-17T04:07:01;15.60;1.00
26053;DHT22;13826;51.186;4.450;2022-07-17T04:09:26;15.70;99.90
26053;DHT22;13826;51.186;4.450;2022-07-17T04:11:52;15.70;99.90
26053;DHT22;13826;51.186;4.450;2022-07-17T04:14:18;15.70;99.90
26053;DHT22;13826;51.186;4.450;2022-07-17T04:16:43;15.70;99.90
26053;DHT22;13826;51.186;4.450;2022-07-17T04:19:09;15.50;1.00
26053;DHT22;13826;51.186;4.450;2022-07-17T04:21:35;15.60;1.00
26053;DHT22;13826;51.186;4.450;2022-07-17T04:24:01;15.80;69.40
26053;DHT22;13826;51.186;4.450;2022-07-17T04:26:26;15.80;1.00
26053;DHT22;13826;51.186;4.450;2022-07-17T04:28:52;15.80;1.00
26053;DHT22;13826;51.186;4.450;2022-07-17T04:31:17;15.70;99.90
26053;DHT22;13826;51.186;4.450;2022-07-17T04:33:43;15.80;99.90
26053;DHT22;13826;51.186;4.450;2022-07-17T04:36:09;15.90;99.90
26053;DHT22;13826;51.186;4.450;2022-07-17T04:38:35;16.10;99.90
26053;DHT22;13826;51.186;4.450;2022-07-17T04:41:00;16.10;1.00
26053;DHT22;13826;51.186;4.450;2022-07-17T04:43:26;16.10;1.00
26053;DHT22;13826;51.186;4.450;2022-07-17T04:45:51;16.00;99.90
26053;DHT22;13826;51.186;4.450;2022-07-17T04:48:17;15.90;27.50
26053;DHT22;13826;51.186;4.450;2022-07-17T04:50:43;15.70;99.90
26053;DHT22;13826;51.186;4.450;2022-07-17T04:53:08;15.80;99.90
26053;DHT22;13826;51.186;4.450;2022-07-17T04:55:34;16.50;99.90
26053;DHT22;13826;51.186;4.450;2022-07-17T04:58:00;17.60;1.00
26053;DHT22;13826;51.186;4.450;2022-07-17T05:00:25;18.70;99.90
26053;DHT22;13826;51.186;4.450;2022-07-17T05:02:52;19.50;1.00
26053;DHT22;13826;51.186;4.450;2022-07-17T05:05:18;20.30;99.90
26053;DHT22;13826;51.186;4.450;2022-07-17T05:07:43;21.30;99.90
26053;DHT22;13826;51.186;4.450;2022-07-17T05:10:09;21.90;10.60
26053;DHT22;13826;51.186;4.450;2022-07-17T05:12:36;22.30;1.00
26053;DHT22;13826;51.186;4.450;2022-07-17T05:15:02;22.50;1.00
26053;DHT22;13826;51.186;4.450;2022-07-17T05:17:27;22.60;1.00
26053;DHT22;13826;51.186;4.450;2022-07-17T05:19:53;23.20;1.00
26053;DHT22;13826;51.186;4.450;2022-07-17T05:22:18;22.70;1.00
26053;DHT22;13826;51.186;4.450;2022-07-17T05:24:44;23.20;1.00
26053;DHT22;13826;51.186;4.450;2022-07-17T05:27:10;22.70;1.00
26053;DHT22;13826;51.186;4.450;2022-07-17T05:29:35;23.00;1.00
26053;DHT22;13826;51.186;4.450;2022-07-17T05:32:02;23.80;1.00
26053;DHT22;13826;51.186;4.450;2022-07-17T05:34:28;23.90;1.00
26053;DHT22;13826;51.186;4.450;2022-07-17T05:36:53;24.50;1.00
26053;DHT22;13826;51.186;4.450;2022-07-17T05:39:19;24.90;1.00
26053;DHT22;13826;51.186;4.450;2022-07-17T05:41:45;25.30;1.00
26053;DHT22;13826;51.186;4.450;2022-07-17T05:44:10;24.90;1.00
26053;DHT22;13826;51.186;4.450;2022-07-17T05:46:36;24.70;1.00
26053;DHT22;13826;51.186;4.450;2022-07-17T05:49:02;25.60;1.00
26053;DHT22;13826;51.186;4.450;2022-07-17T05:51:27;26.80;1.00
26053;DHT22;13826;51.186;4.450;2022-07-17T05:53:53;25.70;1.00
26053;DHT22;13826;51.186;4.450;2022-07-17T05:56:18;24.90;1.00
26053;DHT22;13826;51.186;4.450;2022-07-17T05:58:45;25.20;1.00
26053;DHT22;13826;51.186;4.450;2022-07-17T06:01:10;26.60;1.00
26053;DHT22;13826;51.186;4.450;2022-07-17T06:03:36;25.50;1.00
26053;DHT22;13826;51.186;4.450;2022-07-17T06:06:02;26.60;1.00
26053;DHT22;13826;51.186;4.450;2022-07-17T06:08:27;26.90;1.00
26053;DHT22;13826;51.186;4.450;2022-07-17T06:10:53;26.60;1.00
26053;DHT22;13826;51.186;4.450;2022-07-17T06:13:18;27.30;1.00
26053;DHT22;13826;51.186;4.450;2022-07-17T06:15:44;28.00;1.00
26053;DHT22;13826;51.186;4.450;2022-07-17T06:18:10;28.90;1.00
26053;DHT22;13826;51.186;4.450;2022-07-17T06:20:36;28.60;1.00
26053;DHT22;13826;51.186;4.450;2022-07-17T06:23:01;29.40;1.00
26053;DHT22;13826;51.186;4.450;2022-07-17T06:25:27;30.30;1.00
26053;DHT22;13826;51.186;4.450;2022-07-17T06:27:53;29.60;1.00
26053;DHT22;13826;51.186;4.450;2022-07-17T06:30:18;28.80;1.00
26053;DHT22;13826;51.186;4.450;2022-07-17T06:32:44;29.80;1.00
26053;DHT22;13826;51.186;4.450;2022-07-17T06:35:10;30.80;1.00
26053;DHT22;13826;51.186;4.450;2022-07-17T06:37:36;31.20;1.00
26053;DHT22;13826;51.186;4.450;2022-07-17T06:40:03;31.20;1.00
26053;DHT22;13826;51.186;4.450;2022-07-17T06:42:29;31.30;1.00
26053;DHT22;13826;51.186;4.450;2022-07-17T06:44:55;31.50;1.00
26053;DHT22;13826;51.186;4.450;2022-07-17T06:47:21;32.20;1.00
26053;DHT22;13826;51.186;4.450;2022-07-17T06:49:46;32.50;1.00
26053;DHT22;13826;51.186;4.450;2022-07-17T06:52:12;33.50;1.00
26053;DHT22;13826;51.186;4.450;2022-07-17T06:54:38;33.40;1.00
26053;DHT22;13826;51.186;4.450;2022-07-17T06:57:03;31.70;1.00
26053;DHT22;13826;51.186;4.450;2022-07-17T06:59:29;31.40;1.00
26053;DHT22;13826;51.186;4.450;2022-07-17T07:01:55;32.70;1.00
26053;DHT22;13826;51.186;4.450;2022-07-17T07:04:20;33.80;1.00
26053;DHT22;13826;51.186;4.450;2022-07-17T07:06:46;34.40;1.00
26053;DHT22;13826;51.186;4.450;2022-07-17T07:09:12;34.30;1.00
26053;DHT22;13826;51.186;4.450;2022-07-17T07:11:38;34.90;1.00
26053;DHT22;13826;51.186;4.450;2022-07-17T07:14:04;34.40;1.00
26053;DHT22;13826;51.186;4.450;2022-07-17T07:16:30;33.50;1.00
26053;DHT22;13826;51.186;4.450;2022-07-17T07:18:56;34.40;1.00
26053;DHT22;13826;51.186;4.450;2022-07-17T07:21:22;33.40;1.00
26053;DHT22;13826;51.186;4.450;2022-07-17T07:23:50;34.90;1.00
26053;DHT22;13826;51.186;4.450;2022-07-17T07:26:16;35.00;1.00
26053;DHT22;13826;51.186;4.450;2022-07-17T07:28:41;35.50;1.00
26053;DHT22;13826;51.186;4.450;2022-07-17T07:31:07;35.70;1.00
26053;DHT22;13826;51.186;4.450;2022-07-17T07:33:33;35.50;1.00
26053;DHT22;13826;51.186;4.450;2022-07-17T07:35:59;34.80;1.00
26053;DHT22;13826;51.186;4.450;2022-07-17T07:38:24;35.30;1.00
26053;DHT22;13826;51.186;4.450;2022-07-17T07:40:50;36.20;1.00
26053;DHT22;13826;51.186;4.450;2022-07-17T07:43:16;37.00;1.00
26053;DHT22;13826;51.186;4.450;2022-07-17T07:45:42;36.20;1.00
26053;DHT22;13826;51.186;4.450;2022-07-17T07:48:08;37.30;1.00
26053;DHT22;13826;51.186;4.450;2022-07-17T07:50:33;37.10;1.00
26053;DHT22;13826;51.186;4.450;2022-07-17T07:52:59;37.40;1.00
26053;DHT22;13826;51.186;4.450;2022-07-17T07:55:25;38.20;1.00
26053;DHT22;13826;51.186;4.450;2022-07-17T07:58:11;37.90;1.00
26053;DHT22;13826;51.186;4.450;2022-07-17T08:00:37;38.10;1.00
26053;DHT22;13826;51.186;4.450;2022-07-17T08:03:04;37.60;1.00
26053;DHT22;13826;51.186;4.450;2022-07-17T08:05:30;37.40;1.00
26053;DHT22;13826;51.186;4.450;2022-07-17T08:07:55;37.00;1.00
26053;DHT22;13826;51.186;4.450;2022-07-17T08:10:21;37.00;1.00
26053;DHT22;13826;51.186;4.450;2022-07-17T08:12:47;38.30;1.00
26053;DHT22;13826;51.186;4.450;2022-07-17T08:15:17;38.10;1.00
26053;DHT22;13826;51.186;4.450;2022-07-17T08:17:43;37.50;1.00
26053;DHT22;13826;51.186;4.450;2022-07-17T08:20:10;37.40;1.00
26053;DHT22;13826;51.186;4.450;2022-07-17T08:22:36;38.10;1.00
26053;DHT22;13826;51.186;4.450;2022-07-17T08:25:02;38.20;1.00
26053;DHT22;13826;51.186;4.450;2022-07-17T08:27:27;38.10;1.00
26053;DHT22;13826;51.186;4.450;2022-07-17T08:29:53;37.30;1.00
26053;DHT22;13826;51.186;4.450;2022-07-17T08:32:19;37.30;1.00
26053;DHT22;13826;51.186;4.450;2022-07-17T08:34:44;37.90;1.00
26053;DHT22;13826;51.186;4.450;2022-07-17T08:37:10;37.80;1.00
26053;DHT22;13826;51.186;4.450;2022-07-17T08:39:36;38.00;1.00
26053;DHT22;13826;51.186;4.450;2022-07-17T08:42:04;38.30;1.00
26053;DHT22;13826;51.186;4.450;2022-07-17T08:44:33;37.80;1.00
26053;DHT22;13826;51.186;4.450;2022-07-17T08:46:59;38.30;1.00
26053;DHT22;13826;51.186;4.450;2022-07-17T08:49:25;38.80;1.00
26053;DHT22;13826;51.186;4.450;2022-07-17T08:51:52;38.00;1.00
26053;DHT22;13826;51.186;4.450;2022-07-17T08:54:18;39.30;1.00
26053;DHT22;13826;51.186;4.450;2022-07-17T08:56:43;38.30;1.00
26053;DHT22;13826;51.186;4.450;2022-07-17T08:59:09;37.60;1.00
26053;DHT22;13826;51.186;4.450;2022-07-17T09:01:35;37.50;1.00
26053;DHT22;13826;51.186;4.450;2022-07-17T09:04:04;38.20;1.00
26053;DHT22;13826;51.186;4.450;2022-07-17T09:06:35;38.70;1.00
26053;DHT22;13826;51.186;4.450;2022-07-17T09:09:07;37.90;1.00
26053;DHT22;13826;51.186;4.450;2022-07-17T09:11:48;36.70;1.00
26053;DHT22;13826;51.186;4.450;2022-07-17T09:14:16;36.80;1.00
26053;DHT22;13826;51.186;4.450;2022-07-17T09:19:44;38.20;1.00
26053;DHT22;13826;51.186;4.450;2022-07-17T09:22:23;37.10;1.00
26053;DHT22;13826;51.186;4.450;2022-07-17T09:24:57;37.80;1.00
26053;DHT22;13826;51.186;4.450;2022-07-17T09:30:08;38.10;1.00
26053;DHT22;13826;51.186;4.450;2022-07-17T09:32:37;37.20;1.00
26053;DHT22;13826;51.186;4.450;2022-07-17T09:35:05;38.00;1.00
26053;DHT22;13826;51.186;4.450;2022-07-17T09:37:31;37.80;1.00
26053;DHT22;13826;51.186;4.450;2022-07-17T09:39:58;38.70;1.00
26053;DHT22;13826;51.186;4.450;2022-07-17T09:42:32;39.30;1.00
26053;DHT22;13826;51.186;4.450;2022-07-17T09:45:08;38.00;1.00
26053;DHT22;13826;51.186;4.450;2022-07-17T09:47:36;37.50;1.00
26053;DHT22;13826;51.186;4.450;2022-07-17T09:50:04;37.00;1.00
26053;DHT22;13826;51.186;4.450;2022-07-17T09:52:34;37.70;1.00
26053;DHT22;13826;51.186;4.450;2022-07-17T09:55:01;36.90;1.00
26053;DHT22;13826;51.186;4.450;2022-07-17T09:57:33;37.10;1.00
26053;DHT22;13826;51.186;4.450;2022-07-17T10:00:06;38.10;1.00
26053;DHT22;13826;51.186;4.450;2022-07-17T10:02:33;38.60;1.00
26053;DHT22;13826;51.186;4.450;2022-07-17T10:04:59;39.00;1.00
26053;DHT22;13826;51.186;4.450;2022-07-17T10:07:26;38.70;1.00
26053;DHT22;13826;51.186;4.450;2022-07-17T10:09:52;37.60;1.00
26053;DHT22;13826;51.186;4.450;2022-07-17T10:12:18;36.90;1.00
26053;DHT22;13826;51.186;4.450;2022-07-17T10:14:48;37.50;1.00
26053;DHT22;13826;51.186;4.450;2022-07-17T10:17:14;38.40;1.00
26053;DHT22;13826;51.186;4.450;2022-07-17T10:19:49;39.10;1.00
26053;DHT22;13826;51.186;4.450;2022-07-17T10:22:16;38.30;1.00
26053;DHT22;13826;51.186;4.450;2022-07-17T10:25:04;37.10;1.00
26053;DHT22;13826;51.186;4.450;2022-07-17T10:27:30;36.70;1.00
26053;DHT22;13826;51.186;4.450;2022-07-17T10:30:07;37.10;1.00
26053;DHT22;13826;51.186;4.450;2022-07-17T10:32:35;37.20;1.00
26053;DHT22;13826;51.186;4.450;2022-07-17T10:40:03;36.20;1.00
26053;DHT22;13826;51.186;4.450;2022-07-17T10:47:52;37.10;1.00
26053;DHT22;13826;51.186;4.450;2022-07-17T10:50:30;35.50;1.00
26053;DHT22;13826;51.186;4.450;2022-07-17T10:53:09;36.30;1.00
26053;DHT22;13826;51.186;4.450;2022-07-17T10:55:41;37.20;1.00
26053;DHT22;13826;51.186;4.450;2022-07-17T10:58:27;38.30;1.00
26053;DHT22;13826;51.186;4.450;2022-07-17T11:03:22;37.90;1.00
26053;DHT22;13826;51.186;4.450;2022-07-17T11:05:48;38.00;1.00
26053;DHT22;13826;51.186;4.450;2022-07-17T11:08:14;37.80;1.00
26053;DHT22;13826;51.186;4.450;2022-07-17T11:10:40;37.10;1.00
26053;DHT22;13826;51.186;4.450;2022-07-17T11:13:14;37.40;1.00
26053;DHT22;13826;51.186;4.450;2022-07-17T11:15:48;36.80;1.00
26053;DHT22;13826;51.186;4.450;2022-07-17T11:18:18;36.40;1.00
26053;DHT22;13826;51.186;4.450;2022-07-17T11:20:54;37.00;1.00
26053;DHT22;13826;51.186;4.450;2022-07-17T11:23:22;35.50;1.00
26053;DHT22;13826;51.186;4.450;2022-07-17T11:28:38;35.40;1.00
26053;DHT22;13826;51.186;4.450;2022-07-17T11:31:05;36.20;1.00
26053;DHT22;13826;51.186;4.450;2022-07-17T11:34:05;35.00;1.00
26053;DHT22;13826;51.186;4.450;2022-07-17T11:36:39;34.90;1.00
26053;DHT22;13826;51.186;4.450;2022-07-17T11:39:12;35.60;1.00
26053;DHT22;13826;51.186;4.450;2022-07-17T11:41:44;35.60;1.00
26053;DHT22;13826;51.186;4.450;2022-07-17T11:44:15;34.90;1.00
26053;DHT22;13826;51.186;4.450;2022-07-17T11:46:43;35.10;1.00
26053;DHT22;13826;51.186;4.450;2022-07-17T11:49:10;35.20;1.00
26053;DHT22;13826;51.186;4.450;2022-07-17T11:51:43;34.60;1.00
26053;DHT22;13826;51.186;4.450;2022-07-17T11:54:14;34.20;1.00
26053;DHT22;13826;51.186;4.450;2022-07-17T11:56:50;33.60;1.00
26053;DHT22;13826;51.186;4.450;2022-07-17T11:59:25;34.30;1.00
26053;DHT22;13826;51.186;4.450;2022-07-17T12:01:51;35.10;1.00
26053;DHT22;13826;51.186;4.450;2022-07-17T12:04:17;34.10;1.00
26053;DHT22;13826;51.186;4.450;2022-07-17T12:06:43;32.70;1.00
26053;DHT22;13826;51.186;4.450;2022-07-17T12:09:09;32.20;1.00
26053;DHT22;13826;51.186;4.450;2022-07-17T12:11:46;31.70;1.00
26053;DHT22;13826;51.186;4.450;2022-07-17T12:14:12;31.30;1.00
26053;DHT22;13826;51.186;4.450;2022-07-17T12:16:38;31.10;1.00
26053;DHT22;13826;51.186;4.450;2022-07-17T12:19:12;30.90;1.00
26053;DHT22;13826;51.186;4.450;2022-07-17T12:24:29;31.10;1.00
26053;DHT22;13826;51.186;4.450;2022-07-17T12:26:58;31.10;1.00
26053;DHT22;13826;51.186;4.450;2022-07-17T12:29:24;31.20;1.00
26053;DHT22;13826;51.186;4.450;2022-07-17T12:32:01;31.10;1.00
26053;DHT22;13826;51.186;4.450;2022-07-17T12:34:27;30.70;1.00
26053;DHT22;13826;51.186;4.450;2022-07-17T12:36:52;30.80;1.00
26053;DHT22;13826;51.186;4.450;2022-07-17T12:39:18;30.60;1.00
26053;DHT22;13826;51.186;4.450;2022-07-17T12:41:44;30.70;1.00
26053;DHT22;13826;51.186;4.450;2022-07-17T12:44:10;30.80;1.00
26053;DHT22;13826;51.186;4.450;2022-07-17T12:46:36;30.50;1.00
26053;DHT22;13826;51.186;4.450;2022-07-17T12:49:01;30.10;1.00
26053;DHT22;13826;51.186;4.450;2022-07-17T12:51:27;30.20;1.00
26053;DHT22;13826;51.186;4.450;2022-07-17T12:53:53;30.40;1.00
26053;DHT22;13826;51.186;4.450;2022-07-17T12:56:19;30.40;1.00
26053;DHT22;13826;51.186;4.450;2022-07-17T12:58:44;30.30;1.00
26053;DHT22;13826;51.186;4.450;2022-07-17T13:01:10;30.50;1.00
26053;DHT22;13826;51.186;4.450;2022-07-17T13:03:37;30.50;1.00
26053;DHT22;13826;51.186;4.450;2022-07-17T13:06:03;30.40;1.00
26053;DHT22;13826;51.186;4.450;2022-07-17T13:08:30;30.10;1.00
26053;DHT22;13826;51.186;4.450;2022-07-17T13:10:56;29.90;1.00
26053;DHT22;13826;51.186;4.450;2022-07-17T13:13:22;30.00;1.00
26053;DHT22;13826;51.186;4.450;2022-07-17T13:15:48;30.20;1.00
26053;DHT22;13826;51.186;4.450;2022-07-17T13:18:14;30.20;1.00
26053;DHT22;13826;51.186;4.450;2022-07-17T13:20:40;30.10;1.00
26053;DHT22;13826;51.186;4.450;2022-07-17T13:23:06;29.80;1.00
26053;DHT22;13826;51.186;4.450;2022-07-17T13:25:32;29.90;1.00
26053;DHT22;13826;51.186;4.450;2022-07-17T13:27:58;29.80;1.00
26053;DHT22;13826;51.186;4.450;2022-07-17T13:30:24;30.00;1.00
26053;DHT22;13826;51.186;4.450;2022-07-17T13:32:50;29.50;1.00
26053;DHT22;13826;51.186;4.450;2022-07-17T13:35:15;29.20;1.00
26053;DHT22;13826;51.186;4.450;2022-07-17T13:37:44;29.30;1.00
26053;DHT22;13826;51.186;4.450;2022-07-17T13:40:10;29.50;1.00
26053;DHT22;13826;51.186;4.450;2022-07-17T13:42:35;29.30;1.00
26053;DHT22;13826;51.186;4.450;2022-07-17T13:45:02;29.20;1.00
26053;DHT22;13826;51.186;4.450;2022-07-17T13:47:28;29.20;1.00
26053;DHT22;13826;51.186;4.450;2022-07-17T13:49:54;29.20;1.00
26053;DHT22;13826;51.186;4.450;2022-07-17T13:52:21;29.20;1.00
26053;DHT22;13826;51.186;4.450;2022-07-17T13:54:46;28.80;1.00
26053;DHT22;13826;51.186;4.450;2022-07-17T13:57:12;28.90;1.00
26053;DHT22;13826;51.186;4.450;2022-07-17T13:59:38;28.90;1.00
26053;DHT22;13826;51.186;4.450;2022-07-17T14:02:03;28.50;1.00
26053;DHT22;13826;51.186;4.450;2022-07-17T14:04:29;28.50;1.00
26053;DHT22;13826;51.186;4.450;2022-07-17T14:06:55;28.60;1.00
26053;DHT22;13826;51.186;4.450;2022-07-17T14:09:21;28.70;1.00
26053;DHT22;13826;51.186;4.450;2022-07-17T14:11:46;28.70;1.00
26053;DHT22;13826;51.186;4.450;2022-07-17T14:14:12;29.00;1.00
26053;DHT22;13826;51.186;4.450;2022-07-17T14:16:38;28.90;1.00
26053;DHT22;13826;51.186;4.450;2022-07-17T14:19:03;28.90;1.00
26053;DHT22;13826;51.186;4.450;2022-07-17T14:21:31;28.70;1.00
26053;DHT22;13826;51.186;4.450;2022-07-17T14:23:58;28.80;1.00
26053;DHT22;13826;51.186;4.450;2022-07-17T14:26:24;29.00;1.00
26053;DHT22;13826;51.186;4.450;2022-07-17T14:28:50;28.90;1.00
26053;DHT22;13826;51.186;4.450;2022-07-17T14:31:16;29.30;1.00
26053;DHT22;13826;51.186;4.450;2022-07-17T14:33:42;29.30;1.00
26053;DHT22;13826;51.186;4.450;2022-07-17T14:36:09;29.40;1.00
26053;DHT22;13826;51.186;4.450;2022-07-17T14:38:35;29.10;1.00
26053;DHT22;13826;51.186;4.450;2022-07-17T14:41:00;29.20;1.00
26053;DHT22;13826;51.186;4.450;2022-07-17T14:43:27;29.30;1.00
26053;DHT22;13826;51.186;4.450;2022-07-17T14:45:53;29.20;1.00
26053;DHT22;13826;51.186;4.450;2022-07-17T14:48:19;29.20;1.00
26053;DHT22;13826;51.186;4.450;2022-07-17T14:50:45;29.10;1.00
26053;DHT22;13826;51.186;4.450;2022-07-17T14:53:11;29.10;1.00
26053;DHT22;13826;51.186;4.450;2022-07-17T14:55:36;29.10;1.00
26053;DHT22;13826;51.186;4.450;2022-07-17T14:58:02;29.10;1.00
26053;DHT22;13826;51.186;4.450;2022-07-17T15:00:28;28.90;1.00
26053;DHT22;13826;51.186;4.450;2022-07-17T15:02:53;28.90;1.00
26053;DHT22;13826;51.186;4.450;2022-07-17T15:05:19;29.20;1.00
26053;DHT22;13826;51.186;4.450;2022-07-17T15:07:45;29.00;1.00
26053;DHT22;13826;51.186;4.450;2022-07-17T15:10:10;28.90;1.00
26053;DHT22;13826;51.186;4.450;2022-07-17T15:12:37;28.70;1.00
26053;DHT22;13826;51.186;4.450;2022-07-17T15:15:03;28.80;1.00
26053;DHT22;13826;51.186;4.450;2022-07-17T15:17:28;28.50;1.00
26053;DHT22;13826;51.186;4.450;2022-07-17T15:19:54;28.50;1.00
26053;DHT22;13826;51.186;4.450;2022-07-17T15:22:19;28.80;1.00
26053;DHT22;13826;51.186;4.450;2022-07-17T15:24:45;28.80;1.00
26053;DHT22;13826;51.186;4.450;2022-07-17T15:27:11;28.90;1.00
26053;DHT22;13826;51.186;4.450;2022-07-17T15:29:36;29.10;1.00
26053;DHT22;13826;51.186;4.450;2022-07-17T15:32:03;28.90;1.00
26053;DHT22;13826;51.186;4.450;2022-07-17T15:34:29;28.90;1.00
26053;DHT22;13826;51.186;4.450;2022-07-17T15:36:54;29.10;1.00
26053;DHT22;13826;51.186;4.450;2022-07-17T15:39:20;29.00;1.00
26053;DHT22;13826;51.186;4.450;2022-07-17T15:41:47;28.70;1.00
26053;DHT22;13826;51.186;4.450;2022-07-17T15:44:13;28.70;1.00
26053;DHT22;13826;51.186;4.450;2022-07-17T15:46:42;28.40;1.00
26053;DHT22;13826;51.186;4.450;2022-07-17T15:49:07;28.40;1.00
26053;DHT22;13826;51.186;4.450;2022-07-17T15:51:33;28.40;1.00
26053;DHT22;13826;51.186;4.450;2022-07-17T15:53:58;28.40;1.00
26053;DHT22;13826;51.186;4.450;2022-07-17T15:56:24;28.60;1.00
26053;DHT22;13826;51.186;4.450;2022-07-17T15:58:50;28.70;1.00
26053;DHT22;13826;51.186;4.450;2022-07-17T16:01:15;28.50;1.00
26053;DHT22;13826;51.186;4.450;2022-07-17T16:03:41;28.40;1.00